Time;durP1;ratioP1;P1;durP2;ratioP2;P2;SDS_P1;SDS_P2;PMS_P1;PMS_P2;Temp;Humidity;BMP_temperature;BMP_pressure;BME280_temperature;BME280_humidity;BME280_pressure;Samples;Min_cycle;Max_cycle;Signal;HPM_P1;HPM_P2
2024/01/08 00:00:12;;;;;;;8.73;3.97;;;;;;;;;;6004252;23;20190;-90
2024/01/08 00:03:24;;;;;;;7.47;4.10;;;;;;;;;;6002420;23;20176;-90
2024/01/08 00:06:30;;;;;;;6.43;3.80;;;;;;;;;;6035681;23;20157;-93
2024/01/08 00:09:36;;;;;;;9.90;4.30;;;;;;;;;;6002007;23;20156;-92
2024/01/08 00:12:41;;;;;;;8.83;3.47;;;;;;;;;;6034616;23;20222;-93
2024/01/08 00:15:47;;;;;;;7.10;3.43;;;;;;;;;;6003133;23;20156;-90
2024/01/08 00:18:53;;;;;;;8.90;4.00;;;;;;;;;;6036631;23;20172;-91
2024/01/08 00:21:59;;;;;;;8.40;4.13;;;;;;;;;;6062410;23;20200;-92
2024/01/08 00:25:06;;;;;;;9.87;4.10;;;;;;;;;;6148094;23;20153;-93
2024/01/08 00:28:12;;;;;;;9.83;3.67;;;;;;;;;;6149002;23;20169;-91
2024/01/08 00:31:18;;;;;;;9.27;4.37;;;;;;;;;;6129342;23;20169;-92
2024/01/08 00:34:27;;;;;;;7.40;3.70;;;;;;;;;;6147823;23;20248;-91
2024/01/08 00:37:35;;;;;;;6.67;3.47;;;;;;;;;;6145589;23;20181;-93
2024/01/08 00:40:41;;;;;;;7.60;3.43;;;;;;;;;;6146055;23;20242;-93
2024/01/08 00:43:46;;;;;;;6.00;3.30;;;;;;;;;;6144018;23;20181;-91
2024/01/08 00:46:52;;;;;;;6.40;3.40;;;;;;;;;;6144611;23;20165;-92
2024/01/08 00:49:59;;;;;;;6.93;3.50;;;;;;;;;;6145051;23;20161;-92
2024/01/08 00:53:05;;;;;;;6.50;3.40;;;;;;;;;;6145352;23;20250;-92
2024/01/08 00:56:10;;;;;;;7.57;3.33;;;;;;;;;;6145942;23;20206;-93
2024/01/08 00:59:15;;;;;;;5.27;2.87;;;;;;;;;;6144648;23;20238;-93
2024/01/08 01:02:23;;;;;;;5.50;3.20;;;;;;;;;;6103107;23;20210;-91
2024/01/08 01:05:30;;;;;;;6.87;3.23;;;;;;;;;;6086457;23;20162;-91
2024/01/08 01:08:36;;;;;;;6.53;3.67;;;;;;;;;;6103369;23;20184;-91
2024/01/08 01:11:41;;;;;;;7.77;3.10;;;;;;;;;;6095326;23;20205;-92
2024/01/08 01:14:49;;;;;;;6.07;3.37;;;;;;;;;;6146725;23;20196;-90
2024/01/08 01:17:55;;;;;;;7.10;3.40;;;;;;;;;;6145271;23;20230;-94
2024/01/08 01:21:02;;;;;;;6.77;3.33;;;;;;;;;;6144833;23;20202;-93
2024/01/08 01:24:08;;;;;;;5.77;3.47;;;;;;;;;;6147461;23;20173;-91
2024/01/08 01:27:14;;;;;;;6.17;3.57;;;;;;;;;;6141594;23;20619;-92
2024/01/08 01:30:20;;;;;;;7.50;3.60;;;;;;;;;;6148030;23;20169;-91
2024/01/08 01:33:47;;;;;;;5.77;3.17;;;;;;;;;;6144469;23;20263;-89
2024/01/08 01:36:54;;;;;;;7.23;3.33;;;;;;;;;;6143784;23;20157;-93
2024/01/08 01:40:00;;;;;;;8.13;3.77;;;;;;;;;;6142005;23;20417;-92
2024/01/08 01:43:21;;;;;;;7.87;3.63;;;;;;;;;;6143806;23;20174;-93
2024/01/08 01:46:28;;;;;;;6.73;3.43;;;;;;;;;;6143501;23;20238;-94
2024/01/08 01:49:34;;;;;;;8.23;3.80;;;;;;;;;;6141682;23;20197;-93
2024/01/08 01:52:41;;;;;;;7.87;3.77;;;;;;;;;;6142081;23;20169;-91
2024/01/08 01:55:47;;;;;;;6.03;3.53;;;;;;;;;;6144547;23;20193;-93
2024/01/08 01:58:53;;;;;;;6.13;3.50;;;;;;;;;;6145049;23;20169;-93
2024/01/08 02:07:56;;;;;;;7.10;3.67;;;;;;;;;;6063308;23;20198;-93
2024/01/08 02:11:02;;;;;;;7.73;3.00;;;;;;;;;;6145741;23;20164;-91
2024/01/08 02:14:08;;;;;;;7.07;3.67;;;;;;;;;;6145285;23;20197;-93
2024/01/08 02:17:14;;;;;;;7.47;3.53;;;;;;;;;;6144710;23;20169;-94
2024/01/08 02:20:20;;;;;;;7.10;3.53;;;;;;;;;;6145022;23;20169;-93
2024/01/08 02:23:27;;;;;;;8.83;3.87;;;;;;;;;;6145265;23;20176;-92
2024/01/08 02:26:33;;;;;;;8.77;3.70;;;;;;;;;;6144922;23;20173;-92
2024/01/08 02:29:39;;;;;;;8.97;4.30;;;;;;;;;;6145034;23;20177;-93
2024/01/08 02:32:45;;;;;;;6.67;3.67;;;;;;;;;;6147025;23;20149;-92
2024/01/08 02:35:51;;;;;;;6.40;3.40;;;;;;;;;;6146917;23;20196;-94
2024/01/08 02:38:59;;;;;;;6.13;3.53;;;;;;;;;;6144843;23;20213;-91
2024/01/08 02:42:05;;;;;;;7.07;3.60;;;;;;;;;;6141097;23;20240;-94
2024/01/08 02:45:10;;;;;;;6.50;3.47;;;;;;;;;;6143125;23;20203;-92
2024/01/08 02:48:17;;;;;;;9.50;4.20;;;;;;;;;;6142102;23;20247;-91
2024/01/08 02:51:22;;;;;;;7.63;3.60;;;;;;;;;;6144395;23;20217;-95
2024/01/08 02:54:32;;;;;;;8.33;3.87;;;;;;;;;;6143721;23;20256;-93
2024/01/08 02:57:38;;;;;;;8.67;4.30;;;;;;;;;;6142559;23;20169;-94
2024/01/08 03:00:43;;;;;;;7.53;3.80;;;;;;;;;;6142235;23;20222;-92
2024/01/08 03:03:49;;;;;;;8.53;4.33;;;;;;;;;;6158998;23;20213;-93
2024/01/08 03:06:54;;;;;;;7.30;4.13;;;;;;;;;;6142364;23;20157;-93
2024/01/08 03:10:01;;;;;;;8.53;4.10;;;;;;;;;;6141933;23;20200;-91
2024/01/08 03:13:07;;;;;;;8.57;4.50;;;;;;;;;;6142033;23;20173;-94
2024/01/08 03:16:12;;;;;;;7.27;4.30;;;;;;;;;;6140406;23;20617;-94
2024/01/08 03:19:17;;;;;;;8.17;4.33;;;;;;;;;;6142341;23;20164;-92
2024/01/08 03:22:22;;;;;;;8.67;4.47;;;;;;;;;;6141354;23;20169;-92
2024/01/08 03:25:29;;;;;;;8.47;4.60;;;;;;;;;;6140877;23;20194;-92
2024/01/08 03:28:35;;;;;;;7.87;4.23;;;;;;;;;;6141665;23;20169;-93
2024/01/08 03:31:42;;;;;;;7.07;4.10;;;;;;;;;;6140265;23;20177;-91
2024/01/08 03:34:48;;;;;;;7.33;4.60;;;;;;;;;;6142600;23;20189;-92
2024/01/08 03:37:55;;;;;;;8.10;4.20;;;;;;;;;;6143614;23;20180;-92
2024/01/08 03:41:02;;;;;;;9.37;4.30;;;;;;;;;;6144631;23;20165;-90
2024/01/08 03:44:07;;;;;;;8.67;4.70;;;;;;;;;;6143821;23;20161;-93
2024/01/08 03:47:13;;;;;;;6.73;3.93;;;;;;;;;;6143640;23;20173;-91
2024/01/08 03:50:18;;;;;;;9.13;4.70;;;;;;;;;;6144719;23;20177;-93
2024/01/08 03:53:23;;;;;;;8.50;4.70;;;;;;;;;;6162445;23;20593;-90
2024/01/08 03:56:29;;;;;;;8.80;4.60;;;;;;;;;;6144701;23;20194;-93
2024/01/08 03:59:35;;;;;;;8.60;4.73;;;;;;;;;;6144975;23;20245;-93
2024/01/08 04:02:41;;;;;;;7.87;4.67;;;;;;;;;;6142558;23;20217;-91
2024/01/08 04:05:47;;;;;;;8.53;4.20;;;;;;;;;;6142894;23;20177;-92
2024/01/08 04:08:52;;;;;;;12.77;4.33;;;;;;;;;;6142871;23;20652;-92
2024/01/08 04:11:59;;;;;;;7.13;4.40;;;;;;;;;;6144431;23;20169;-91
2024/01/08 04:15:04;;;;;;;8.60;4.50;;;;;;;;;;6141936;23;20301;-92
2024/01/08 04:18:10;;;;;;;12.00;4.80;;;;;;;;;;6141979;23;20168;-94
2024/01/08 04:21:17;;;;;;;7.87;4.20;;;;;;;;;;6142518;23;20234;-90
2024/01/08 04:24:24;;;;;;;10.63;4.70;;;;;;;;;;6142313;23;20164;-92
2024/01/08 04:27:33;;;;;;;8.97;4.60;;;;;;;;;;6142744;23;20173;-91
2024/01/08 04:30:38;;;;;;;11.57;5.00;;;;;;;;;;6144220;23;20170;-91
2024/01/08 04:33:43;;;;;;;8.50;4.63;;;;;;;;;;6141549;23;20169;-93
2024/01/08 04:36:49;;;;;;;8.17;4.70;;;;;;;;;;6138456;23;20170;-91
2024/01/08 04:39:54;;;;;;;9.83;4.90;;;;;;;;;;6138975;23;20165;-93
2024/01/08 04:43:01;;;;;;;9.03;4.47;;;;;;;;;;6139402;23;20169;-91
2024/01/08 04:46:09;;;;;;;9.20;4.67;;;;;;;;;;6139588;23;20506;-93
2024/01/08 04:49:16;;;;;;;8.23;4.50;;;;;;;;;;6140673;23;20157;-93
2024/01/08 04:52:26;;;;;;;7.33;4.00;;;;;;;;;;6139735;23;20181;-89
2024/01/08 04:55:32;;;;;;;9.17;5.00;;;;;;;;;;6141462;23;20197;-91
2024/01/08 04:58:38;;;;;;;8.87;4.77;;;;;;;;;;6141736;23;20170;-93
2024/01/08 05:01:43;;;;;;;10.43;5.03;;;;;;;;;;6140338;23;20185;-92
2024/01/08 05:04:49;;;;;;;8.57;4.73;;;;;;;;;;6142100;23;20214;-91
2024/01/08 05:07:54;;;;;;;8.00;4.47;;;;;;;;;;6141339;23;20172;-90
2024/01/08 05:10:59;;;;;;;7.93;4.17;;;;;;;;;;6143160;23;20210;-92
2024/01/08 05:14:06;;;;;;;5.93;3.73;;;;;;;;;;6140874;23;20474;-91
2024/01/08 05:17:11;;;;;;;8.97;4.93;;;;;;;;;;6140885;23;20169;-92
2024/01/08 05:20:17;;;;;;;7.53;4.20;;;;;;;;;;6143025;23;20156;-92
2024/01/08 05:23:23;;;;;;;12.27;5.07;;;;;;;;;;6140587;23;20161;-93
2024/01/08 05:26:29;;;;;;;8.00;4.73;;;;;;;;;;6140854;23;20197;-91
2024/01/08 05:29:35;;;;;;;11.33;5.07;;;;;;;;;;6143363;23;20172;-91
2024/01/08 05:32:43;;;;;;;11.97;5.40;;;;;;;;;;6143204;23;20563;-91
2024/01/08 05:35:49;;;;;;;10.03;5.07;;;;;;;;;;6140031;23;20283;-92
2024/01/08 05:38:54;;;;;;;12.13;5.47;;;;;;;;;;6140944;23;20221;-91
2024/01/08 05:41:59;;;;;;;11.33;4.90;;;;;;;;;;6141010;23;20164;-92
2024/01/08 05:45:07;;;;;;;8.70;4.93;;;;;;;;;;6158175;23;20177;-91
2024/01/08 05:48:13;;;;;;;7.97;4.60;;;;;;;;;;6143204;23;20166;-93
2024/01/08 05:54:38;;;;;;;10.07;5.13;;;;;;;;;;6139329;23;20225;-93
2024/01/08 05:57:43;;;;;;;10.43;4.60;;;;;;;;;;6140349;23;20173;-90
2024/01/08 06:00:54;;;;;;;11.63;5.63;;;;;;;;;;6142136;23;20213;-90
2024/01/08 06:04:00;;;;;;;11.83;5.03;;;;;;;;;;6144778;23;20658;-91
2024/01/08 06:07:06;;;;;;;12.77;5.40;;;;;;;;;;6142874;23;20173;-92
2024/01/08 06:10:11;;;;;;;9.97;4.93;;;;;;;;;;6142134;23;20474;-91
2024/01/08 06:13:16;;;;;;;7.23;4.20;;;;;;;;;;6142744;23;20215;-90
2024/01/08 06:16:24;;;;;;;10.73;5.13;;;;;;;;;;6143349;23;20217;-92
2024/01/08 06:19:30;;;;;;;9.20;5.10;;;;;;;;;;6143884;23;20165;-90
2024/01/08 06:22:37;;;;;;;9.90;4.93;;;;;;;;;;6144751;23;20170;-91
2024/01/08 06:25:42;;;;;;;8.67;5.00;;;;;;;;;;6144221;23;20169;-91
2024/01/08 06:28:48;;;;;;;10.50;5.17;;;;;;;;;;6146180;23;20174;-90
2024/01/08 06:31:57;;;;;;;12.70;5.33;;;;;;;;;;6144125;23;20166;-91
2024/01/08 06:35:03;;;;;;;11.57;5.07;;;;;;;;;;6144000;23;20197;-92
2024/01/08 06:38:09;;;;;;;10.27;4.73;;;;;;;;;;6145322;23;20174;-92
2024/01/08 06:41:16;;;;;;;10.70;5.80;;;;;;;;;;6144349;23;20168;-91
2024/01/08 06:44:24;;;;;;;11.37;5.70;;;;;;;;;;6146988;23;20186;-92
2024/01/08 06:47:37;;;;;;;11.83;5.33;;;;;;;;;;6143109;23;20173;-89
2024/01/08 06:50:42;;;;;;;11.37;5.53;;;;;;;;;;6142962;23;20157;-92
2024/01/08 06:53:49;;;;;;;10.30;5.00;;;;;;;;;;6142215;23;20165;-92
2024/01/08 06:56:59;;;;;;;13.50;5.70;;;;;;;;;;6143500;23;20177;-91
2024/01/08 07:00:08;;;;;;;10.30;5.50;;;;;;;;;;6144354;23;20211;-91
2024/01/08 07:03:16;;;;;;;9.07;5.23;;;;;;;;;;6142838;23;20173;-90
2024/01/08 07:06:21;;;;;;;13.37;5.47;;;;;;;;;;6142406;23;20169;-92
2024/01/08 07:09:26;;;;;;;10.67;5.63;;;;;;;;;;6144872;23;20180;-93
2024/01/08 07:12:34;;;;;;;10.27;5.50;;;;;;;;;;6144684;23;20170;-95
2024/01/08 07:15:45;;;;;;;12.00;5.57;;;;;;;;;;6146466;23;20223;-91
2024/01/08 07:18:52;;;;;;;15.90;6.03;;;;;;;;;;6145388;23;20169;-89
2024/01/08 07:21:58;;;;;;;9.33;5.80;;;;;;;;;;6145186;23;20209;-91
2024/01/08 07:25:03;;;;;;;15.47;6.80;;;;;;;;;;6162982;23;20172;-90
2024/01/08 07:28:11;;;;;;;10.30;5.13;;;;;;;;;;6144852;23;20215;-94
2024/01/08 07:31:17;;;;;;;11.80;5.77;;;;;;;;;;6145534;23;20238;-91
2024/01/08 07:34:25;;;;;;;11.93;5.97;;;;;;;;;;6145126;23;20185;-91
2024/01/08 07:37:30;;;;;;;13.40;6.40;;;;;;;;;;6145174;23;20181;-93
2024/01/08 07:40:37;;;;;;;11.10;5.03;;;;;;;;;;6147991;23;20189;-92
2024/01/08 07:43:42;;;;;;;10.27;5.40;;;;;;;;;;6144015;23;20165;-92
2024/01/08 07:46:47;;;;;;;10.97;5.43;;;;;;;;;;6145816;23;20166;-92
2024/01/08 07:49:54;;;;;;;10.10;5.40;;;;;;;;;;6144603;23;20222;-90
2024/01/08 07:53:00;;;;;;;10.97;5.53;;;;;;;;;;6146721;23;20153;-90
2024/01/08 07:56:06;;;;;;;10.40;5.43;;;;;;;;;;6144835;23;20200;-89
2024/01/08 07:59:11;;;;;;;17.33;5.63;;;;;;;;;;6144822;23;20168;-92
2024/01/08 08:02:18;;;;;;;13.50;7.73;;;;;;;;;;6147138;23;20210;-93
2024/01/08 08:05:25;;;;;;;14.20;6.10;;;;;;;;;;6147644;23;20157;-91
2024/01/08 16:13:19;;;;;;;14.50;7.60;;;;;;;;;;6056061;23;20338;31
2024/01/08 16:16:27;;;;;;;16.40;8.37;;;;;;;;;;6029766;23;20225;-91
2024/01/08 16:19:32;;;;;;;17.10;8.83;;;;;;;;;;6022714;23;20231;-92
2024/01/08 16:22:38;;;;;;;20.07;9.40;;;;;;;;;;6029360;23;20175;-92
2024/01/08 16:25:43;;;;;;;18.53;8.83;;;;;;;;;;6028743;23;20225;-91
2024/01/08 16:28:48;;;;;;;29.37;9.57;;;;;;;;;;6029342;23;20172;-91
2024/01/08 16:31:57;;;;;;;25.13;9.67;;;;;;;;;;6031283;23;20170;-93
2024/01/08 16:35:06;;;;;;;19.17;8.50;;;;;;;;;;6030615;23;20205;-90
2024/01/08 16:38:13;;;;;;;20.37;7.87;;;;;;;;;;6031586;23;20181;-90
2024/01/08 16:41:19;;;;;;;19.10;8.60;;;;;;;;;;6029604;23;20176;-90
2024/01/08 16:44:24;;;;;;;17.30;7.40;;;;;;;;;;6029403;23;20225;-90
2024/01/08 16:47:31;;;;;;;15.67;7.17;;;;;;;;;;6031144;23;20159;-91
2024/01/08 16:50:38;;;;;;;20.53;9.00;;;;;;;;;;6030155;23;20247;-92
2024/01/08 16:53:51;;;;;;;19.10;8.63;;;;;;;;;;6032003;23;20171;-92
2024/01/08 16:56:57;;;;;;;17.60;7.70;;;;;;;;;;6029988;23;20188;-90
2024/01/08 17:00:04;;;;;;;15.50;7.87;;;;;;;;;;6030088;23;20164;-90
2024/01/08 17:03:15;;;;;;;17.23;7.53;;;;;;;;;;6031287;23;20246;-92
2024/01/08 17:06:22;;;;;;;17.23;7.20;;;;;;;;;;6031019;23;20245;-91
2024/01/08 17:09:27;;;;;;;14.87;6.17;;;;;;;;;;6031969;23;20175;-92
2024/01/08 17:12:35;;;;;;;14.60;6.50;;;;;;;;;;6031312;23;20229;-92
2024/01/08 17:15:43;;;;;;;16.23;7.27;;;;;;;;;;6031051;23;20240;-92
2024/01/08 17:18:51;;;;;;;15.47;6.80;;;;;;;;;;6033690;23;20167;-94
2024/01/08 17:21:57;;;;;;;15.67;5.80;;;;;;;;;;6030835;23;20190;-93
2024/01/08 17:25:03;;;;;;;16.30;6.33;;;;;;;;;;6031288;23;20246;-94
2024/01/08 17:28:10;;;;;;;13.10;5.87;;;;;;;;;;6032477;23;20231;-91
2024/01/08 21:14:13;;;;;;;25.07;9.60;;;;;;;;;;6042275;23;20709;-92
2024/01/08 21:17:19;;;;;;;27.73;10.53;;;;;;;;;;6173445;23;20188;-92
2024/01/08 21:20:25;;;;;;;24.53;9.50;;;;;;;;;;6158328;23;20304;-93
2024/01/08 21:23:39;;;;;;;26.30;10.17;;;;;;;;;;6162830;23;20176;-93
2024/01/08 21:27:02;;;;;;;26.03;9.63;;;;;;;;;;6174733;23;20177;-93
2024/01/08 21:30:10;;;;;;;27.67;9.77;;;;;;;;;;6174243;23;20164;-92
2024/01/08 21:33:16;;;;;;;24.27;9.93;;;;;;;;;;6174831;23;20193;-92
2024/01/08 21:36:24;;;;;;;24.57;9.80;;;;;;;;;;6175123;23;20195;-91
2024/01/08 21:39:29;;;;;;;26.40;9.63;;;;;;;;;;6173636;23;20176;-93
2024/01/08 21:42:36;;;;;;;29.73;9.17;;;;;;;;;;6173009;23;20221;-92
2024/01/08 21:45:43;;;;;;;23.27;9.27;;;;;;;;;;6170656;23;20662;-93
2024/01/08 21:48:48;;;;;;;24.33;9.23;;;;;;;;;;6171176;23;20161;-93
2024/01/08 21:51:54;;;;;;;25.23;9.43;;;;;;;;;;6170467;23;20168;-90
2024/01/08 21:55:03;;;;;;;26.00;10.40;;;;;;;;;;6168439;23;20527;-93
2024/01/08 21:58:08;;;;;;;28.87;10.63;;;;;;;;;;6171003;23;20168;-92
2024/01/08 22:01:16;;;;;;;24.53;9.67;;;;;;;;;;6169494;23;20232;-92
2024/01/08 22:04:21;;;;;;;26.53;10.03;;;;;;;;;;6170616;23;20173;-93
2024/01/08 22:07:26;;;;;;;27.33;10.43;;;;;;;;;;6168145;23;20176;-91
2024/01/08 22:10:31;;;;;;;29.27;11.40;;;;;;;;;;6168006;23;20171;-92
2024/01/08 22:13:37;;;;;;;26.60;10.83;;;;;;;;;;6169197;23;20171;-90
2024/01/08 22:16:44;;;;;;;31.67;10.90;;;;;;;;;;6168910;23;20196;-95
2024/01/08 22:19:49;;;;;;;31.83;11.43;;;;;;;;;;6168677;23;20169;-92
2024/01/08 22:22:54;;;;;;;27.20;11.07;;;;;;;;;;6169677;23;20171;-92
2024/01/08 22:25:59;;;;;;;28.17;11.23;;;;;;;;;;6169592;23;20293;-92
2024/01/08 22:29:05;;;;;;;24.17;10.17;;;;;;;;;;6173804;23;20164;-92
2024/01/08 22:32:12;;;;;;;28.83;10.47;;;;;;;;;;6168386;23;20244;-94
2024/01/08 22:35:17;;;;;;;29.07;10.83;;;;;;;;;;6169640;23;20184;-93
2024/01/08 22:38:24;;;;;;;26.20;10.80;;;;;;;;;;6171760;23;20180;-92
2024/01/08 22:41:30;;;;;;;27.97;10.13;;;;;;;;;;6175120;23;20168;-91
2024/01/08 22:44:37;;;;;;;33.07;11.20;;;;;;;;;;6173225;23;20245;-91
2024/01/08 22:47:44;;;;;;;28.27;11.10;;;;;;;;;;6173975;23;20168;-92
2024/01/08 22:50:49;;;;;;;32.23;11.47;;;;;;;;;;6172847;23;20249;-91
2024/01/08 22:53:54;;;;;;;28.90;10.83;;;;;;;;;;6173118;23;20168;-92
2024/01/08 22:57:00;;;;;;;28.87;10.37;;;;;;;;;;6171935;23;20749;-92
2024/01/08 23:00:12;;;;;;;28.20;11.07;;;;;;;;;;6172692;23;20203;-94
2024/01/08 23:03:19;;;;;;;30.53;10.27;;;;;;;;;;6172955;23;20176;-91
2024/01/08 23:06:25;;;;;;;24.10;9.13;;;;;;;;;;6155260;23;20185;-92
2024/01/08 23:09:31;;;;;;;27.20;10.70;;;;;;;;;;6173388;23;20253;-93
2024/01/08 23:12:42;;;;;;;25.07;10.07;;;;;;;;;;6172507;23;20167;-93
2024/01/08 23:15:47;;;;;;;23.90;10.10;;;;;;;;;;6172807;23;20192;-93
2024/01/08 23:18:54;;;;;;;24.77;9.90;;;;;;;;;;6172987;23;20184;-91
2024/01/08 23:21:59;;;;;;;28.57;9.90;;;;;;;;;;6171992;23;20668;-92
2024/01/08 23:25:05;;;;;;;24.60;9.10;;;;;;;;;;6144705;23;20221;-93
2024/01/08 23:28:10;;;;;;;25.07;9.50;;;;;;;;;;6143717;23;20198;-94
2024/01/08 23:31:15;;;;;;;23.57;9.83;;;;;;;;;;6159925;23;20188;-92
2024/01/08 23:34:22;;;;;;;34.23;10.27;;;;;;;;;;6144058;23;20221;-93
2024/01/08 23:37:27;;;;;;;26.37;10.20;;;;;;;;;;6144776;23;20237;-94
2024/01/08 23:40:32;;;;;;;31.97;10.30;;;;;;;;;;6143662;23;20172;-91
2024/01/08 23:43:37;;;;;;;29.23;9.53;;;;;;;;;;6144099;23;20237;-91
2024/01/08 23:46:44;;;;;;;26.10;9.80;;;;;;;;;;6146006;23;20174;-93
2024/01/08 23:49:52;;;;;;;22.60;8.80;;;;;;;;;;6160767;23;20205;-91
2024/01/08 23:52:58;;;;;;;26.50;8.93;;;;;;;;;;6142528;23;20470;-91
2024/01/08 23:56:03;;;;;;;28.77;9.33;;;;;;;;;;6143275;23;20174;-92
2024/01/08 23:59:08;;;;;;;29.17;9.80;;;;;;;;;;6141919;23;20623;-93
